Falken — SBCH — position and weather

sailwx.info

Track history (hours):
 
Tides and Currents Weather Stations Pressure Air Temp Water Temp Dewpoint Dewpoint Depression Visibility Wind Speed Wind Dir Waves Ship Positions

Falken (Sweden)

Last reported at 2014-Oct-24 21:33 UTC. Time now 2014-Oct-25 04:28 UTC.
Position N 42°13' E 004°28'.

Length 40 m; draft 4.2 m.

Type: Sailing vessel. MMSI: 265070000.

Date/timePositionNaut miles runAvg speedWind from/ knotsBaromVisibWave heightAir tempDewpointWater temp
2014-Oct-24 21:33N 42°13' E 004°28'7 6.5
2014-Oct-24 20:25N 42°09' E 004°19'6 6.0
2014-Oct-24 19:22N 42°06' E 004°12'4 5.2
2014-Oct-24 18:31N 42°03' E 004°08'5 5.0
2014-Oct-24 17:28N 41°59' E 004°03'5 5.2
2014-Oct-24 16:29N 41°55' E 003°59'5 5.1
2014-Oct-24 15:30N 41°51' E 003°54'5 4.3
2014-Oct-24 14:19N 41°47' E 003°50'4 3.6
2014-Oct-24 13:21N 41°44' E 003°49'3 3.7
2014-Oct-24 12:33N 41°42' E 003°46'4 3.4
2014-Oct-24 11:18N 41°40' E 003°41'3 3.5
2014-Oct-24 10:29N 41°39' E 003°37'4 3.5
2014-Oct-24 09:22N 41°39' E 003°32'3 3.0
2014-Oct-24 08:29N 41°39' E 003°28'48 4.3
2014-Oct-23 21:14N 41°03' E 002°45'5 5.1
2014-Oct-23 20:15N 40°58' E 002°44'4 4.8
2014-Oct-23 19:25N 40°55' E 002°42'4 4.1
2014-Oct-23 18:24N 40°51' E 002°41'2 2.6
2014-Oct-23 17:30N 40°48' E 002°40'1 1.1
2014-Oct-23 16:25N 40°48' E 002°39'1 0.7
2014-Oct-23 15:26N 40°48' E 002°38'4 4.3
2014-Oct-23 14:29N 40°45' E 002°35'4 3.3
2014-Oct-23 13:24N 40°42' E 002°32'4 3.6
2014-Oct-23 12:24N 40°40' E 002°28'3 4.1
2014-Oct-23 11:34N 40°37' E 002°25'3 3.1
2014-Oct-23 10:34N 40°35' E 002°22'4 3.0
2014-Oct-23 09:24N 40°32' E 002°19'2 2.1
2014-Oct-23 08:33N 40°31' E 002°18'3 1.8
2014-Oct-23 07:09N 40°29' E 002°16'2 3.5
2014-Oct-23 06:27N 40°27' E 002°14'57 1.6
2014-Oct-21 18:20N 39°33' E 002°37'0 0.0
2014-Oct-20 19:26N 39°33' E 002°37'0 0.0
2014-Oct-18 16:32N 39°33' E 002°37'0 0.0
2014-Oct-18 15:32N 39°33' E 002°37'0 0.0
2014-Oct-18 14:32N 39°33' E 002°37'0 0.0
2014-Oct-18 13:32N 39°33' E 002°37'0 0.0
2014-Oct-18 12:32N 39°33' E 002°37'0 0.0
2014-Oct-18 11:32N 39°33' E 002°37'0 0.0
2014-Oct-18 10:32N 39°33' E 002°37'0 0.0
2014-Oct-18 08:20N 39°33' E 002°37'0 0.0
2014-Oct-18 07:32N 39°33' E 002°37'0 0.0
2014-Oct-18 06:32N 39°33' E 002°37'0 0.0
2014-Oct-18 05:32N 39°33' E 002°37'0 0.0
2014-Oct-18 04:32N 39°33' E 002°37'0 0.0
2014-Oct-18 03:32N 39°33' E 002°37'0 0.0
2014-Oct-18 02:32N 39°33' E 002°37'0 0.0
2014-Oct-18 01:32N 39°33' E 002°37'0 0.0
2014-Oct-18 00:32N 39°33' E 002°37'0 0.0
2014-Oct-17 23:32N 39°33' E 002°37'0 0.0
2014-Oct-17 22:32N 39°33' E 002°37'0 0.0
2014-Oct-17 21:32N 39°33' E 002°37'0 0.0
2014-Oct-17 20:32N 39°33' E 002°37'0 0.0
2014-Oct-17 19:32N 39°33' E 002°37'0 0.0
2014-Oct-17 18:32N 39°33' E 002°37'0 0.0
2014-Oct-17 17:32N 39°33' E 002°37'0 0.0
2014-Oct-17 16:32N 39°33' E 002°37'0 0.0
2014-Oct-17 15:32N 39°33' E 002°37'0 0.0
2014-Oct-17 14:32N 39°33' E 002°37'0 0.0
2014-Oct-17 13:32N 39°33' E 002°37'0 0.0
2014-Oct-17 12:32N 39°33' E 002°37'0 0.0
2014-Oct-17 11:32N 39°33' E 002°37'0 0.0
2014-Oct-17 10:32N 39°33' E 002°37'0 0.0
2014-Oct-17 09:32N 39°33' E 002°37'0 0.0
2014-Oct-17 08:32N 39°33' E 002°37'0 0.0
2014-Oct-17 07:32N 39°33' E 002°37'0 0.0
2014-Oct-17 06:32N 39°33' E 002°37'0 0.0
2014-Oct-17 05:32N 39°33' E 002°37'0 0.0
2014-Oct-17 04:29N 39°33' E 002°37'0 0.0
2014-Oct-17 03:32N 39°33' E 002°37'0 0.0
2014-Oct-17 02:32N 39°33' E 002°37'0 0.0
2014-Oct-17 01:32N 39°33' E 002°37'0 0.0
2014-Oct-17 00:32N 39°33' E 002°37'0 0.0
2014-Oct-16 23:32N 39°33' E 002°37'0 0.0
2014-Oct-16 22:32N 39°33' E 002°37'0 0.0
2014-Oct-16 21:32N 39°33' E 002°37'0 0.0
2014-Oct-16 20:32N 39°33' E 002°37'0 0.0
2014-Oct-16 19:32N 39°33' E 002°37'0 0.0
2014-Oct-16 18:32N 39°33' E 002°37'0 0.0
2014-Oct-16 17:32N 39°33' E 002°37'0 0.0
2014-Oct-16 16:32N 39°33' E 002°37'0 0.0
2014-Oct-16 15:32N 39°33' E 002°37'0 0.0
2014-Oct-16 14:32N 39°33' E 002°37'0 0.0
2014-Oct-16 13:32N 39°33' E 002°37'0 0.0
2014-Oct-16 12:32N 39°33' E 002°37'0 0.0
2014-Oct-16 11:32N 39°33' E 002°37'0 0.0
2014-Oct-16 10:32N 39°33' E 002°37'0 0.0
2014-Oct-16 09:32N 39°33' E 002°37'0 0.0
2014-Oct-16 08:32N 39°33' E 002°37'0 0.0
2014-Oct-16 07:32N 39°33' E 002°37'0 0.0
2014-Oct-16 06:32N 39°33' E 002°37'0 0.0
2014-Oct-16 05:32N 39°33' E 002°37'0 0.0
2014-Oct-16 04:32N 39°33' E 002°37'0 0.0
2014-Oct-16 03:32N 39°33' E 002°37'0 0.0
2014-Oct-16 02:32N 39°33' E 002°37'0 0.0
2014-Oct-16 01:32N 39°33' E 002°37'0 0.0
2014-Oct-16 00:32N 39°33' E 002°37'0 0.0
2014-Oct-15 23:29N 39°33' E 002°37'0 0.0
2014-Oct-15 22:32N 39°33' E 002°37'0 0.0
2014-Oct-15 21:32N 39°33' E 002°37'0 0.0
2014-Oct-15 20:32N 39°33' E 002°37'0 0.0
2014-Oct-15 19:32N 39°33' E 002°37'0 0.0
2014-Oct-15 18:32N 39°33' E 002°37'0 0.0
2014-Oct-15 17:32N 39°33' E 002°37'0 0.0
2014-Oct-15 16:32N 39°33' E 002°37'0 0.0
2014-Oct-15 15:32N 39°33' E 002°37'0 0.0
2014-Oct-15 14:29N 39°33' E 002°37'0 0.0
2014-Oct-15 13:32N 39°33' E 002°37'0 0.0
2014-Oct-15 12:32N 39°33' E 002°37'0 0.0
2014-Oct-15 11:32N 39°33' E 002°37'0 0.0
2014-Oct-15 10:32N 39°33' E 002°37'0 0.0
2014-Oct-15 09:32N 39°33' E 002°37'0 0.0
2014-Oct-15 08:32N 39°33' E 002°37'0 0.0
2014-Oct-15 07:32N 39°33' E 002°37'0 0.0
2014-Oct-15 06:29N 39°33' E 002°37'0 0.0
2014-Oct-15 05:32N 39°33' E 002°37'0 0.0
2014-Oct-15 04:32N 39°33' E 002°37'0 0.0
2014-Oct-15 03:32N 39°33' E 002°37'0 0.0
2014-Oct-15 02:32N 39°33' E 002°37'0 0.0
2014-Oct-15 01:32N 39°33' E 002°37'0 0.0
2014-Oct-15 00:32N 39°33' E 002°37'0 0.0
2014-Oct-14 23:32N 39°33' E 002°37'0 0.0
2014-Oct-14 22:32N 39°33' E 002°37'  
Track history (hours):
 
Tides and Currents Weather Stations Pressure Air Temp Water Temp Dewpoint Dewpoint Depression Visibility Wind Speed Wind Dir Waves Ship Positions

Falken (Sweden)

Last reported at 2014-Oct-24 21:33 UTC. Time now 2014-Oct-25 04:28 UTC.
Position N 42°13' E 004°28'.

Length 40 m; draft 4.2 m.

Type: Sailing vessel. MMSI: 265070000.

Date/timePositionNaut miles runAvg speedWind from/ knotsBaromVisibWave heightAir tempDewpointWater temp
2014-Oct-24 21:33N 42°13' E 004°28'7 6.5
2014-Oct-24 20:25N 42°09' E 004°19'6 6.0
2014-Oct-24 19:22N 42°06' E 004°12'4 5.2
2014-Oct-24 18:31N 42°03' E 004°08'5 5.0
2014-Oct-24 17:28N 41°59' E 004°03'5 5.2
2014-Oct-24 16:29N 41°55' E 003°59'5 5.1
2014-Oct-24 15:30N 41°51' E 003°54'5 4.3
2014-Oct-24 14:19N 41°47' E 003°50'4 3.6
2014-Oct-24 13:21N 41°44' E 003°49'3 3.7
2014-Oct-24 12:33N 41°42' E 003°46'4 3.4
2014-Oct-24 11:18N 41°40' E 003°41'3 3.5
2014-Oct-24 10:29N 41°39' E 003°37'4 3.5
2014-Oct-24 09:22N 41°39' E 003°32'3 3.0
2014-Oct-24 08:29N 41°39' E 003°28'48 4.3
2014-Oct-23 21:14N 41°03' E 002°45'5 5.1
2014-Oct-23 20:15N 40°58' E 002°44'4 4.8
2014-Oct-23 19:25N 40°55' E 002°42'4 4.1
2014-Oct-23 18:24N 40°51' E 002°41'2 2.6
2014-Oct-23 17:30N 40°48' E 002°40'1 1.1
2014-Oct-23 16:25N 40°48' E 002°39'1 0.7
2014-Oct-23 15:26N 40°48' E 002°38'4 4.3
2014-Oct-23 14:29N 40°45' E 002°35'4 3.3
2014-Oct-23 13:24N 40°42' E 002°32'4 3.6
2014-Oct-23 12:24N 40°40' E 002°28'3 4.1
2014-Oct-23 11:34N 40°37' E 002°25'3 3.1
2014-Oct-23 10:34N 40°35' E 002°22'4 3.0
2014-Oct-23 09:24N 40°32' E 002°19'2 2.1
2014-Oct-23 08:33N 40°31' E 002°18'3 1.8
2014-Oct-23 07:09N 40°29' E 002°16'2 3.5
2014-Oct-23 06:27N 40°27' E 002°14'57 1.6
2014-Oct-21 18:20N 39°33' E 002°37'0 0.0
2014-Oct-20 19:26N 39°33' E 002°37'0 0.0
2014-Oct-18 16:32N 39°33' E 002°37'0 0.0
2014-Oct-18 15:32N 39°33' E 002°37'0 0.0
2014-Oct-18 14:32N 39°33' E 002°37'0 0.0
2014-Oct-18 13:32N 39°33' E 002°37'0 0.0
2014-Oct-18 12:32N 39°33' E 002°37'0 0.0
2014-Oct-18 11:32N 39°33' E 002°37'0 0.0
2014-Oct-18 10:32N 39°33' E 002°37'0 0.0
2014-Oct-18 08:20N 39°33' E 002°37'0 0.0
2014-Oct-18 07:32N 39°33' E 002°37'0 0.0
2014-Oct-18 06:32N 39°33' E 002°37'0 0.0
2014-Oct-18 05:32N 39°33' E 002°37'0 0.0
2014-Oct-18 04:32N 39°33' E 002°37'0 0.0
2014-Oct-18 03:32N 39°33' E 002°37'0 0.0
2014-Oct-18 02:32N 39°33' E 002°37'0 0.0
2014-Oct-18 01:32N 39°33' E 002°37'0 0.0
2014-Oct-18 00:32N 39°33' E 002°37'0 0.0
2014-Oct-17 23:32N 39°33' E 002°37'0 0.0
2014-Oct-17 22:32N 39°33' E 002°37'0 0.0
2014-Oct-17 21:32N 39°33' E 002°37'0 0.0
2014-Oct-17 20:32N 39°33' E 002°37'0 0.0
2014-Oct-17 19:32N 39°33' E 002°37'0 0.0
2014-Oct-17 18:32N 39°33' E 002°37'0 0.0
2014-Oct-17 17:32N 39°33' E 002°37'0 0.0
2014-Oct-17 16:32N 39°33' E 002°37'0 0.0
2014-Oct-17 15:32N 39°33' E 002°37'0 0.0
2014-Oct-17 14:32N 39°33' E 002°37'0 0.0
2014-Oct-17 13:32N 39°33' E 002°37'0 0.0
2014-Oct-17 12:32N 39°33' E 002°37'0 0.0
2014-Oct-17 11:32N 39°33' E 002°37'0 0.0
2014-Oct-17 10:32N 39°33' E 002°37'0 0.0
2014-Oct-17 09:32N 39°33' E 002°37'0 0.0
2014-Oct-17 08:32N 39°33' E 002°37'0 0.0
2014-Oct-17 07:32N 39°33' E 002°37'0 0.0
2014-Oct-17 06:32N 39°33' E 002°37'0 0.0
2014-Oct-17 05:32N 39°33' E 002°37'0 0.0
2014-Oct-17 04:29N 39°33' E 002°37'0 0.0
2014-Oct-17 03:32N 39°33' E 002°37'0 0.0
2014-Oct-17 02:32N 39°33' E 002°37'0 0.0
2014-Oct-17 01:32N 39°33' E 002°37'0 0.0
2014-Oct-17 00:32N 39°33' E 002°37'0 0.0
2014-Oct-16 23:32N 39°33' E 002°37'0 0.0
2014-Oct-16 22:32N 39°33' E 002°37'0 0.0
2014-Oct-16 21:32N 39°33' E 002°37'0 0.0
2014-Oct-16 20:32N 39°33' E 002°37'0 0.0
2014-Oct-16 19:32N 39°33' E 002°37'0 0.0
2014-Oct-16 18:32N 39°33' E 002°37'0 0.0
2014-Oct-16 17:32N 39°33' E 002°37'0 0.0
2014-Oct-16 16:32N 39°33' E 002°37'0 0.0
2014-Oct-16 15:32N 39°33' E 002°37'0 0.0
2014-Oct-16 14:32N 39°33' E 002°37'0 0.0
2014-Oct-16 13:32N 39°33' E 002°37'0 0.0
2014-Oct-16 12:32N 39°33' E 002°37'0 0.0
2014-Oct-16 11:32N 39°33' E 002°37'0 0.0
2014-Oct-16 10:32N 39°33' E 002°37'0 0.0
2014-Oct-16 09:32N 39°33' E 002°37'0 0.0
2014-Oct-16 08:32N 39°33' E 002°37'0 0.0
2014-Oct-16 07:32N 39°33' E 002°37'0 0.0
2014-Oct-16 06:32N 39°33' E 002°37'0 0.0
2014-Oct-16 05:32N 39°33' E 002°37'0 0.0
2014-Oct-16 04:32N 39°33' E 002°37'0 0.0
2014-Oct-16 03:32N 39°33' E 002°37'0 0.0
2014-Oct-16 02:32N 39°33' E 002°37'0 0.0
2014-Oct-16 01:32N 39°33' E 002°37'0 0.0
2014-Oct-16 00:32N 39°33' E 002°37'0 0.0
2014-Oct-15 23:29N 39°33' E 002°37'0 0.0
2014-Oct-15 22:32N 39°33' E 002°37'0 0.0
2014-Oct-15 21:32N 39°33' E 002°37'0 0.0
2014-Oct-15 20:32N 39°33' E 002°37'0 0.0
2014-Oct-15 19:32N 39°33' E 002°37'0 0.0
2014-Oct-15 18:32N 39°33' E 002°37'0 0.0
2014-Oct-15 17:32N 39°33' E 002°37'0 0.0
2014-Oct-15 16:32N 39°33' E 002°37'0 0.0
2014-Oct-15 15:32N 39°33' E 002°37'0 0.0
2014-Oct-15 14:29N 39°33' E 002°37'0 0.0
2014-Oct-15 13:32N 39°33' E 002°37'0 0.0
2014-Oct-15 12:32N 39°33' E 002°37'0 0.0
2014-Oct-15 11:32N 39°33' E 002°37'0 0.0
2014-Oct-15 10:32N 39°33' E 002°37'0 0.0
2014-Oct-15 09:32N 39°33' E 002°37'0 0.0
2014-Oct-15 08:32N 39°33' E 002°37'0 0.0
2014-Oct-15 07:32N 39°33' E 002°37'0 0.0
2014-Oct-15 06:29N 39°33' E 002°37'0 0.0
2014-Oct-15 05:32N 39°33' E 002°37'0 0.0
2014-Oct-15 04:32N 39°33' E 002°37'0 0.0
2014-Oct-15 03:32N 39°33' E 002°37'0 0.0
2014-Oct-15 02:32N 39°33' E 002°37'0 0.0
2014-Oct-15 01:32N 39°33' E 002°37'0 0.0
2014-Oct-15 00:32N 39°33' E 002°37'0 0.0
2014-Oct-14 23:32N 39°33' E 002°37'0 0.0
2014-Oct-14 22:32N 39°33' E 002°37'  

Dump ship's entire track history